createdAt,value
2023-05-09T00:01:09.926Z,7.25
2023-05-09T00:03:41.035Z,7.13
2023-05-09T00:06:13.722Z,5.97
2023-05-09T00:08:44.555Z,7.18
2023-05-09T00:11:17.974Z,9.65
2023-05-09T00:13:49.275Z,6.15
2023-05-09T00:16:20.907Z,9.23
2023-05-09T00:18:51.839Z,7.28
2023-05-09T00:21:22.802Z,12.48
2023-05-09T00:23:53.679Z,6.45
2023-05-09T00:26:27.317Z,5.18
2023-05-09T00:28:58.102Z,8.25
2023-05-09T00:31:28.931Z,4.70
2023-05-09T00:33:59.903Z,7.88
2023-05-09T00:36:30.919Z,4.68
2023-05-09T00:39:01.827Z,7.63
2023-05-09T00:41:35.220Z,7.88
2023-05-09T00:44:06.266Z,6.28
2023-05-09T00:46:37.399Z,6.20
2023-05-09T00:49:08.856Z,10.02
2023-05-09T00:51:40.372Z,7.53
2023-05-09T00:54:12.437Z,5.32
2023-05-09T00:56:45.893Z,6.10
2023-05-09T00:59:17.550Z,6.57
2023-05-09T01:01:48.846Z,6.45
2023-05-09T01:04:20.698Z,6.28
2023-05-09T01:07:01.269Z,8.05
2023-05-09T01:09:40.786Z,7.53
2023-05-09T01:12:25.738Z,4.75
2023-05-09T01:15:07.073Z,8.70
2023-05-09T01:17:47.518Z,4.05
2023-05-09T01:20:27.362Z,7.15
2023-05-09T01:23:13.876Z,6.22
2023-05-09T01:26:01.076Z,4.05
2023-05-09T01:28:52.079Z,5.35
2023-05-09T01:31:26.976Z,5.53
2023-05-09T01:34:01.437Z,5.30
2023-05-09T01:36:35.908Z,5.97
2023-05-09T01:39:07.693Z,5.40
2023-05-09T01:41:41.716Z,4.47
2023-05-09T01:44:15.593Z,6.85
2023-05-09T01:46:50.154Z,2.97
2023-05-09T01:49:21.790Z,3.33
2023-05-09T01:51:54.209Z,5.28
2023-05-09T01:54:28.512Z,6.05
2023-05-09T01:57:00.112Z,6.35
2023-05-09T01:59:33.237Z,5.28
2023-05-09T02:02:07.376Z,3.72
2023-05-09T02:04:40.031Z,3.42
2023-05-09T02:07:11.998Z,4.60
2023-05-09T02:09:42.880Z,4.72
2023-05-09T02:12:13.726Z,4.65
2023-05-09T02:14:44.662Z,2.53
2023-05-09T02:17:18.281Z,2.28
2023-05-09T02:19:49.219Z,4.45
2023-05-09T02:22:20.265Z,3.97
2023-05-09T02:24:51.179Z,3.88
2023-05-09T02:27:27.339Z,2.67
2023-05-09T02:30:03.153Z,2.60
2023-05-09T02:32:38.997Z,2.33
2023-05-09T02:35:12.621Z,1.60
2023-05-09T02:37:44.023Z,4.63
2023-05-09T02:40:16.558Z,1.55
2023-05-09T02:42:47.485Z,2.08
2023-05-09T02:45:18.464Z,1.80
2023-05-09T02:47:52.046Z,1.90
2023-05-09T02:50:23.214Z,2.95
2023-05-09T02:52:54.145Z,2.50
2023-05-09T02:55:25.857Z,1.70
2023-05-09T02:58:05.614Z,3.30
2023-05-09T03:00:43.930Z,2.05
2023-05-09T03:03:19.503Z,1.40
2023-05-09T03:05:50.894Z,1.63
2023-05-09T03:08:21.742Z,1.02
2023-05-09T03:10:52.880Z,1.35
2023-05-09T03:13:23.821Z,1.98
2023-05-09T03:15:55.164Z,1.45
2023-05-09T03:18:28.821Z,1.10
2023-05-09T03:20:59.710Z,3.47
2023-05-09T03:23:31.241Z,1.90
2023-05-09T03:26:02.855Z,1.50
2023-05-09T03:28:34.421Z,1.83
2023-05-09T03:31:09.283Z,4.70
2023-05-09T03:33:43.145Z,0.93
2023-05-09T03:36:14.171Z,0.70
2023-05-09T03:38:47.266Z,0.82
2023-05-09T03:41:20.905Z,2.00
2023-05-09T03:43:52.616Z,1.90
2023-05-09T03:46:23.506Z,0.82
2023-05-09T03:48:57.052Z,1.95
2023-05-09T03:51:28.513Z,1.27
2023-05-09T03:54:00.831Z,1.88
2023-05-09T03:56:32.364Z,0.98
2023-05-09T03:59:03.869Z,2.72
2023-05-09T04:01:37.300Z,1.45
2023-05-09T04:04:15.151Z,0.75
2023-05-09T04:06:47.652Z,0.80
2023-05-09T04:09:20.711Z,0.90
2023-05-09T04:11:52.273Z,1.15
2023-05-09T04:14:23.118Z,1.98
2023-05-09T04:16:55.358Z,0.90
2023-05-09T04:19:28.828Z,0.60
2023-05-09T04:21:59.703Z,0.85
2023-05-09T04:24:30.891Z,1.75
2023-05-09T04:27:02.400Z,1.15
2023-05-09T04:29:33.386Z,1.48
2023-05-09T04:32:05.387Z,1.80
2023-05-09T04:34:38.868Z,2.70
2023-05-09T04:37:17.403Z,0.63
2023-05-09T04:39:49.266Z,2.72
2023-05-09T04:42:28.781Z,0.98
2023-05-09T04:44:59.632Z,1.17
2023-05-09T04:47:32.733Z,1.23
2023-05-09T04:50:06.275Z,1.08
2023-05-09T04:52:37.178Z,1.00
2023-05-09T04:55:08.998Z,1.48
2023-05-09T04:57:44.539Z,1.60
2023-05-09T05:00:18.052Z,1.75
2023-05-09T05:02:50.594Z,2.55
2023-05-09T05:05:25.006Z,1.95
2023-05-09T05:07:57.237Z,0.65
2023-05-09T05:10:33.423Z,0.77
2023-05-09T05:13:10.013Z,0.95
2023-05-09T05:15:45.253Z,1.92
2023-05-09T05:18:18.269Z,0.68
2023-05-09T05:20:51.864Z,0.63
2023-05-09T05:23:22.772Z,0.30
2023-05-09T05:25:57.156Z,1.02
2023-05-09T05:28:28.856Z,0.85
2023-05-09T05:31:00.216Z,2.20
2023-05-09T05:33:31.314Z,1.10
2023-05-09T05:36:05.567Z,2.03
2023-05-09T05:38:36.491Z,0.50
2023-05-09T05:41:11.506Z,1.52
2023-05-09T05:43:45.905Z,1.30
2023-05-09T05:46:19.812Z,2.00
2023-05-09T05:48:51.218Z,2.50
2023-05-09T05:51:24.876Z,1.98
2023-05-09T05:53:56.136Z,0.55
2023-05-09T05:56:28.434Z,1.20
2023-05-09T05:59:00.410Z,1.08
2023-05-09T06:01:31.828Z,1.10
2023-05-09T06:04:02.842Z,1.90
2023-05-09T06:06:38.723Z,3.78
2023-05-09T06:09:09.832Z,1.40
2023-05-09T06:11:41.254Z,1.88
2023-05-09T06:14:12.123Z,4.15
2023-05-09T06:16:43.453Z,7.63
2023-05-09T06:19:14.473Z,2.75
2023-05-09T06:21:47.927Z,4.93
2023-05-09T06:24:27.952Z,3.10
2023-05-09T06:27:06.000Z,0.88
2023-05-09T06:29:36.893Z,6.00
2023-05-09T06:32:08.322Z,3.03
2023-05-09T06:34:39.347Z,5.53
2023-05-09T06:37:12.807Z,2.25
2023-05-09T06:39:43.695Z,2.60
2023-05-09T06:42:14.664Z,4.07
2023-05-09T06:44:48.018Z,3.45
2023-05-09T06:47:19.025Z,1.83
2023-05-09T06:49:50.058Z,1.55
2023-05-09T06:52:23.822Z,2.63
2023-05-09T06:54:54.949Z,2.70
2023-05-09T06:57:25.823Z,4.07
2023-05-09T06:59:56.925Z,4.63
2023-05-09T07:02:27.867Z,2.65
2023-05-09T07:04:59.165Z,1.00
2023-05-09T07:07:32.710Z,6.10
2023-05-09T07:10:11.403Z,2.10
2023-05-09T07:12:43.521Z,17.48
2023-05-09T07:15:22.751Z,3.53
2023-05-09T07:18:00.193Z,1.92
2023-05-09T07:20:31.337Z,3.13
2023-05-09T07:23:08.400Z,1.67
2023-05-09T07:25:43.033Z,3.92
2023-05-09T07:28:17.837Z,2.72
2023-05-09T07:30:52.091Z,2.88
2023-05-09T07:33:25.270Z,1.95
2023-05-09T07:35:56.401Z,2.15
2023-05-09T07:38:32.494Z,2.33
2023-05-09T07:41:03.984Z,2.60
2023-05-09T07:43:35.220Z,3.22
2023-05-09T07:46:06.350Z,2.03
2023-05-09T07:48:37.444Z,2.45
2023-05-09T07:51:09.001Z,3.47
2023-05-09T07:53:42.530Z,1.88
2023-05-09T07:56:13.778Z,3.75
2023-05-09T07:58:44.764Z,1.85
2023-05-09T08:01:15.951Z,1.75
2023-05-09T08:03:47.054Z,3.53
2023-05-09T08:06:18.220Z,2.30
2023-05-09T08:08:51.736Z,2.10
2023-05-09T08:11:23.155Z,3.15
2023-05-09T08:13:54.322Z,2.85
2023-05-09T08:16:25.375Z,2.42
2023-05-09T08:18:56.353Z,3.42
2023-05-09T08:21:27.414Z,2.03
2023-05-09T08:24:02.151Z,2.95
2023-05-09T08:26:33.024Z,2.55
2023-05-09T08:29:04.188Z,3.05
2023-05-09T08:31:35.177Z,3.80
2023-05-09T08:34:06.213Z,3.17
2023-05-09T08:36:37.615Z,2.20
2023-05-09T08:39:11.095Z,3.00
2023-05-09T08:41:43.115Z,3.05
2023-05-09T08:44:14.416Z,4.45
2023-05-09T08:46:51.242Z,9.73
2023-05-09T08:49:23.667Z,7.15
2023-05-09T08:51:55.078Z,2.03
2023-05-09T08:54:29.877Z,3.13
2023-05-09T08:57:05.880Z,3.30
2023-05-09T08:59:42.576Z,2.33
2023-05-09T09:02:18.014Z,3.83
2023-05-09T09:04:53.436Z,4.55
2023-05-09T09:07:27.692Z,7.68
2023-05-09T09:10:11.933Z,3.35
2023-05-09T09:12:49.482Z,4.78
2023-05-09T09:15:27.702Z,2.40
2023-05-09T09:18:10.699Z,2.47
2023-05-09T09:20:51.932Z,3.05
2023-05-09T09:23:26.668Z,4.82
2023-05-09T09:26:05.964Z,1.95
2023-05-09T09:28:37.592Z,3.80
2023-05-09T09:31:23.812Z,2.80
2023-05-09T09:33:54.884Z,3.72
2023-05-09T09:36:32.829Z,2.67
2023-05-09T09:39:05.971Z,5.20
2023-05-09T09:41:41.115Z,2.17
2023-05-09T09:44:12.881Z,3.15
2023-05-09T09:46:48.182Z,5.55
2023-05-09T09:49:20.110Z,4.28
2023-05-09T09:51:54.956Z,4.03
2023-05-09T09:54:26.551Z,4.63
2023-05-09T09:57:00.154Z,5.25
2023-05-09T09:59:31.275Z,3.78
2023-05-09T10:02:07.434Z,4.95
2023-05-09T10:07:15.020Z,3.42
2023-05-09T10:09:49.001Z,4.88
2023-05-09T10:12:23.888Z,4.28
2023-05-09T10:14:54.928Z,5.57
2023-05-09T10:17:27.746Z,5.25
2023-05-09T10:19:59.667Z,2.00
2023-05-09T10:22:32.179Z,4.63
2023-05-09T10:25:08.247Z,2.78
2023-05-09T10:27:44.955Z,2.20
2023-05-09T10:30:20.461Z,2.25
2023-05-09T10:32:55.886Z,3.40
2023-05-09T10:35:30.220Z,5.13
2023-05-09T10:38:01.760Z,5.63
2023-05-09T10:40:33.324Z,3.60
2023-05-09T10:43:07.525Z,3.67
2023-05-09T10:45:38.945Z,4.90
2023-05-09T10:48:10.666Z,2.45
2023-05-09T10:50:42.989Z,2.78
2023-05-09T10:53:16.599Z,3.47
2023-05-09T10:55:55.758Z,5.75
2023-05-09T10:58:33.837Z,7.32
2023-05-09T11:01:06.316Z,3.13
2023-05-09T11:03:58.658Z,4.32
2023-05-09T11:06:51.525Z,4.85
2023-05-09T11:09:33.307Z,6.60
2023-05-09T11:12:15.785Z,2.80
2023-05-09T11:14:52.056Z,3.35
2023-05-09T11:17:32.812Z,5.13
2023-05-09T11:20:06.874Z,2.63
2023-05-09T11:22:43.316Z,3.38
2023-05-09T11:25:17.313Z,2.05
2023-05-09T11:27:50.272Z,2.90
2023-05-09T11:30:24.627Z,4.13
2023-05-09T11:32:59.239Z,2.78
2023-05-09T11:35:31.972Z,4.40
2023-05-09T11:38:38.928Z,2.00
2023-05-09T11:41:10.585Z,4.63
2023-05-09T11:43:42.469Z,3.90
2023-05-09T11:46:17.182Z,3.58
2023-05-09T11:48:48.102Z,3.78
2023-05-09T11:51:21.447Z,2.58
2023-05-09T11:53:54.359Z,3.28
2023-05-09T11:56:26.140Z,2.40
2023-05-09T11:58:57.146Z,2.60
2023-05-09T12:01:31.905Z,3.00
2023-05-09T12:04:03.210Z,3.38
2023-05-09T12:06:34.284Z,3.35
2023-05-09T12:09:05.459Z,3.05
2023-05-09T12:11:37.598Z,3.67
2023-05-09T12:14:08.680Z,3.33
2023-05-09T12:16:49.033Z,2.58
2023-05-09T12:19:22.361Z,3.78
2023-05-09T12:21:57.446Z,3.70
2023-05-09T12:24:30.251Z,1.67
2023-05-09T12:27:03.749Z,1.65
2023-05-09T12:29:35.427Z,3.53
2023-05-09T12:32:09.521Z,1.30
2023-05-09T12:34:40.750Z,1.88
2023-05-09T12:37:19.286Z,2.22
2023-05-09T12:40:05.301Z,3.85
2023-05-09T12:42:36.929Z,2.90
2023-05-09T12:45:12.079Z,3.15
2023-05-09T12:47:46.146Z,4.05
2023-05-09T12:50:17.191Z,4.55
2023-05-09T12:53:02.848Z,1.83
2023-05-09T12:55:41.984Z,4.32
2023-05-09T12:58:12.929Z,3.00
2023-05-09T13:00:47.054Z,3.40
2023-05-09T13:03:29.897Z,3.17
2023-05-09T13:06:05.071Z,5.32
2023-05-09T13:08:36.340Z,3.42
2023-05-09T13:11:16.221Z,4.20
2023-05-09T13:13:48.477Z,2.53
2023-05-09T13:16:19.535Z,3.63
2023-05-09T13:18:55.827Z,3.67
2023-05-09T13:21:26.839Z,3.42
2023-05-09T13:23:57.868Z,3.10
2023-05-09T13:26:29.292Z,3.28
2023-05-09T13:29:00.540Z,2.85
2023-05-09T13:31:31.724Z,3.20
2023-05-09T13:34:05.205Z,1.33
2023-05-09T13:36:36.478Z,1.25
2023-05-09T13:39:07.596Z,1.75
2023-05-09T13:41:38.628Z,2.97
2023-05-09T13:44:09.845Z,1.35
2023-05-09T13:46:53.542Z,2.13
2023-05-09T13:49:28.016Z,1.58
2023-05-09T13:51:59.128Z,2.55
2023-05-09T13:54:35.314Z,1.15
2023-05-09T13:57:08.220Z,1.08
2023-05-09T13:59:41.494Z,1.60
2023-05-09T14:02:13.465Z,0.68
2023-05-09T14:04:48.033Z,0.73
2023-05-09T14:07:19.018Z,1.30
2023-05-09T14:09:53.980Z,2.78
2023-05-09T14:12:29.858Z,4.10
2023-05-09T14:15:01.019Z,1.00
2023-05-09T14:17:32.101Z,1.45
2023-05-09T14:20:06.796Z,0.77
2023-05-09T14:22:38.087Z,0.77
2023-05-09T14:25:09.958Z,0.85
2023-05-09T14:27:40.843Z,0.65
2023-05-09T14:30:13.693Z,1.63
2023-05-09T14:32:45.260Z,0.60
2023-05-09T14:35:19.177Z,0.73
2023-05-09T14:37:50.099Z,1.70
2023-05-09T14:40:24.187Z,1.23
2023-05-09T14:42:55.163Z,0.57
2023-05-09T14:45:26.822Z,1.38
2023-05-09T14:47:57.946Z,0.82
2023-05-09T14:50:32.378Z,1.00
2023-05-09T14:53:04.091Z,0.77
2023-05-09T14:55:35.109Z,0.90
2023-05-09T14:58:06.519Z,1.23
2023-05-09T15:00:38.087Z,0.63
2023-05-09T15:03:09.031Z,0.80
2023-05-09T15:05:43.887Z,0.63
2023-05-09T15:08:14.979Z,1.73
2023-05-09T15:10:47.005Z,1.00
2023-05-09T15:13:18.766Z,0.80
2023-05-09T15:15:49.863Z,2.28
2023-05-09T15:18:21.927Z,0.98
2023-05-09T15:20:55.445Z,1.10
2023-05-09T15:23:26.683Z,0.88
2023-05-09T15:25:57.756Z,1.40
2023-05-09T15:28:28.744Z,1.38
2023-05-09T15:31:00.419Z,2.05
2023-05-09T15:33:31.538Z,3.30
2023-05-09T15:36:05.297Z,1.85
2023-05-09T15:38:36.231Z,0.63
2023-05-09T15:41:07.117Z,1.25
2023-05-09T15:43:38.185Z,0.98
2023-05-09T15:46:09.390Z,2.22
2023-05-09T15:48:40.277Z,2.20
2023-05-09T15:51:15.802Z,3.40
2023-05-09T15:54:10.778Z,3.10
2023-05-09T15:56:41.749Z,3.28
2023-05-09T15:59:12.980Z,2.67
2023-05-09T16:01:44.025Z,1.75
2023-05-09T16:04:15.048Z,3.33
2023-05-09T16:06:49.608Z,2.60
2023-05-09T16:09:21.007Z,2.40
2023-05-09T16:11:51.990Z,2.75
2023-05-09T16:14:23.941Z,2.10
2023-05-09T16:16:55.016Z,3.45
2023-05-09T16:19:26.524Z,2.85
2023-05-09T16:22:00.353Z,3.03
2023-05-09T16:24:32.086Z,2.78
2023-05-09T16:27:03.129Z,3.42
2023-05-09T16:29:34.073Z,2.72
2023-05-09T16:32:05.191Z,5.80
2023-05-09T16:34:36.361Z,5.03
2023-05-09T16:37:09.997Z,6.22
2023-05-09T16:39:41.458Z,5.45
2023-05-09T16:42:12.742Z,2.95
2023-05-09T16:44:43.885Z,8.55
2023-05-09T16:47:14.875Z,5.57
2023-05-09T16:49:46.282Z,4.75
2023-05-09T16:52:19.877Z,3.20
2023-05-09T16:54:50.788Z,7.00
2023-05-09T16:57:21.758Z,5.60
2023-05-09T16:59:53.624Z,2.72
2023-05-09T17:02:24.583Z,4.03
2023-05-09T17:04:55.635Z,10.20
2023-05-09T17:07:29.122Z,4.55
2023-05-09T17:10:00.234Z,3.53
2023-05-09T17:12:31.272Z,3.95
2023-05-09T17:15:02.258Z,4.85
2023-05-09T17:17:33.366Z,6.15
2023-05-09T17:20:05.201Z,6.07
2023-05-09T17:22:38.945Z,4.90
2023-05-09T17:25:11.088Z,5.38
2023-05-09T17:27:47.487Z,6.90
2023-05-09T17:30:29.614Z,6.50
2023-05-09T17:33:07.173Z,4.18
2023-05-09T17:35:40.908Z,3.78
2023-05-09T17:38:14.410Z,3.78
2023-05-09T17:40:45.338Z,5.60
2023-05-09T17:43:16.598Z,7.45
2023-05-09T17:45:48.508Z,5.85
2023-05-09T17:48:19.643Z,3.30
2023-05-09T17:50:50.952Z,3.90
2023-05-09T17:53:26.004Z,5.57
2023-05-09T17:55:58.264Z,5.97
2023-05-09T17:58:30.073Z,4.60
2023-05-09T18:01:01.827Z,6.15
2023-05-09T18:03:33.229Z,5.00
2023-05-09T18:06:05.354Z,5.28
2023-05-09T18:08:39.885Z,5.03
2023-05-09T18:11:11.065Z,6.07
2023-05-09T18:13:42.346Z,4.95
2023-05-09T18:16:13.940Z,4.75
2023-05-09T18:18:48.089Z,5.35
2023-05-09T18:21:19.124Z,3.80
2023-05-09T18:23:53.060Z,6.10
2023-05-09T18:26:24.201Z,5.82
2023-05-09T18:28:55.110Z,8.30
2023-05-09T18:31:26.292Z,4.82
2023-05-09T18:33:57.752Z,6.07
2023-05-09T18:36:30.397Z,4.95
2023-05-09T18:39:04.853Z,5.65
2023-05-09T18:41:36.329Z,5.63
2023-05-09T18:44:07.538Z,5.70
2023-05-09T18:46:40.325Z,4.72
2023-05-09T18:49:11.524Z,8.75
2023-05-09T18:51:42.368Z,4.07
2023-05-09T18:54:17.541Z,2.80
2023-05-09T18:56:48.425Z,5.32
2023-05-09T18:59:19.305Z,4.50
2023-05-09T19:01:50.320Z,1.73
2023-05-09T19:04:22.004Z,6.43
2023-05-09T19:06:53.465Z,3.00
2023-05-09T19:09:27.379Z,9.05
2023-05-09T19:12:00.134Z,10.07
2023-05-09T19:14:31.258Z,6.25
2023-05-09T19:17:03.075Z,5.47
2023-05-09T19:19:35.562Z,3.90
2023-05-09T19:22:07.648Z,8.27
2023-05-09T19:24:42.653Z,4.93
2023-05-09T19:27:13.905Z,6.63
2023-05-09T19:29:44.883Z,5.47
2023-05-09T19:32:15.868Z,5.35
2023-05-09T19:34:47.131Z,4.28
2023-05-09T19:37:18.449Z,5.57
2023-05-09T19:39:53.078Z,3.70
2023-05-09T19:42:24.227Z,4.90
2023-05-09T19:44:55.569Z,3.35
2023-05-09T19:47:29.286Z,3.85
2023-05-09T19:50:00.577Z,7.80
2023-05-09T19:52:32.106Z,5.53
2023-05-09T19:55:06.661Z,3.60
2023-05-09T19:57:37.841Z,4.10
2023-05-09T20:00:10.308Z,2.55
2023-05-09T20:02:43.302Z,8.23
2023-05-09T20:05:14.815Z,7.55
2023-05-09T20:07:46.681Z,3.67
2023-05-09T20:10:20.189Z,3.25
2023-05-09T20:12:51.301Z,5.93
2023-05-09T20:15:22.677Z,5.05
2023-05-09T20:17:57.789Z,3.97
2023-05-09T20:20:30.140Z,3.38
2023-05-09T20:23:02.280Z,3.38
2023-05-09T20:25:35.742Z,4.18
2023-05-09T20:28:06.769Z,3.53
2023-05-09T20:30:37.682Z,5.60
2023-05-09T20:33:08.859Z,2.67
2023-05-09T20:35:40.035Z,6.35
2023-05-09T20:38:10.928Z,5.28
2023-05-09T20:40:44.870Z,5.50
2023-05-09T20:43:16.005Z,7.03
2023-05-09T20:45:47.145Z,8.65
2023-05-09T20:48:18.113Z,5.50
2023-05-09T20:50:49.600Z,3.58
2023-05-09T20:53:20.568Z,8.32
2023-05-09T20:55:54.069Z,6.85
2023-05-09T20:58:25.102Z,4.60
2023-05-09T21:00:55.989Z,3.75
2023-05-09T21:03:27.030Z,5.35
2023-05-09T21:05:57.989Z,4.53
2023-05-09T21:08:30.042Z,3.28
2023-05-09T21:11:03.659Z,3.22
2023-05-09T21:13:34.574Z,8.35
2023-05-09T21:16:06.564Z,6.72
2023-05-09T21:18:37.442Z,3.78
2023-05-09T21:21:10.615Z,3.80
2023-05-09T21:23:41.618Z,3.95
2023-05-09T21:26:15.480Z,4.03
2023-05-09T21:28:46.608Z,5.47
2023-05-09T21:31:17.723Z,2.72
2023-05-09T21:33:48.831Z,5.88
2023-05-09T21:36:19.689Z,3.88
2023-05-09T21:38:50.525Z,5.20
2023-05-09T21:41:24.307Z,5.65
2023-05-09T21:43:55.213Z,2.80
2023-05-09T21:46:26.155Z,5.78
2023-05-09T21:48:57.132Z,9.77
2023-05-09T21:51:28.184Z,4.88
2023-05-09T21:53:59.098Z,4.93
2023-05-09T21:56:33.465Z,6.13
2023-05-09T21:59:04.389Z,4.00
2023-05-09T22:01:35.291Z,6.80
2023-05-09T22:04:07.513Z,4.50
2023-05-09T22:06:38.351Z,5.32
2023-05-09T22:09:09.158Z,7.00
2023-05-09T22:11:42.958Z,5.55
2023-05-09T22:14:13.917Z,6.55
2023-05-09T22:16:44.895Z,5.47
2023-05-09T22:19:15.783Z,6.72
2023-05-09T22:21:49.307Z,8.63
2023-05-09T22:24:20.096Z,11.13
2023-05-09T22:26:53.515Z,9.20
2023-05-09T22:29:24.374Z,7.60
2023-05-09T22:31:55.846Z,6.45
2023-05-09T22:34:26.805Z,5.63
2023-05-09T22:36:57.672Z,3.17
2023-05-09T22:39:28.688Z,7.45
2023-05-09T22:42:02.838Z,6.30
2023-05-09T22:44:33.684Z,10.02
2023-05-09T22:47:04.659Z,11.23
2023-05-09T22:49:35.770Z,6.85
2023-05-09T22:52:06.952Z,6.72
2023-05-09T22:54:37.908Z,7.43
2023-05-09T22:57:11.603Z,8.02
2023-05-09T22:59:42.425Z,10.88
2023-05-09T23:02:13.428Z,11.70
2023-05-09T23:04:44.334Z,8.48
2023-05-09T23:07:16.552Z,5.82
2023-05-09T23:09:47.549Z,8.60
2023-05-09T23:12:20.997Z,9.35
2023-05-09T23:14:52.025Z,11.10
2023-05-09T23:17:23.345Z,11.63
2023-05-09T23:19:54.289Z,11.25
2023-05-09T23:22:25.123Z,9.10
2023-05-09T23:24:56.259Z,7.15
2023-05-09T23:27:31.546Z,5.70
2023-05-09T23:30:03.000Z,11.90
2023-05-09T23:32:33.931Z,9.32
2023-05-09T23:35:04.808Z,11.52
2023-05-09T23:37:35.884Z,9.88
2023-05-09T23:40:07.247Z,9.38
2023-05-09T23:42:40.659Z,11.50
2023-05-09T23:45:13.160Z,8.52
2023-05-09T23:47:43.987Z,8.00
2023-05-09T23:50:15.136Z,7.43
2023-05-09T23:52:49.470Z,8.05
2023-05-09T23:55:20.917Z,11.35
2023-05-09T23:57:54.457Z,10.45
